createdAt,value
2023-01-22T00:00:41.304Z,51.54
2023-01-22T00:02:43.978Z,51.32
2023-01-22T00:04:46.746Z,51.36
2023-01-22T00:06:49.427Z,51.50
2023-01-22T00:08:52.502Z,51.37
2023-01-22T00:10:57.500Z,51.42
2023-01-22T00:13:00.167Z,51.38
2023-01-22T00:15:02.996Z,51.49
2023-01-22T00:17:05.683Z,51.47
2023-01-22T00:19:08.605Z,51.44
2023-01-22T00:21:12.652Z,51.58
2023-01-22T00:23:15.435Z,51.39
2023-01-22T00:25:18.102Z,51.48
2023-01-22T00:27:22.039Z,51.49
2023-01-22T00:29:24.751Z,51.73
2023-01-22T00:31:27.530Z,51.69
2023-01-22T00:33:30.521Z,51.50
2023-01-22T00:35:34.961Z,51.74
2023-01-22T00:37:37.565Z,51.79
2023-01-22T00:39:40.149Z,51.69
2023-01-22T00:41:43.706Z,51.65
2023-01-22T00:43:48.236Z,51.70
2023-01-22T00:45:50.868Z,51.66
2023-01-22T00:47:53.587Z,51.74
2023-01-22T00:49:56.276Z,51.78
2023-01-22T00:51:59.203Z,51.77
2023-01-22T00:54:01.935Z,51.65
2023-01-22T00:56:05.326Z,51.65
2023-01-22T00:58:07.940Z,51.46
2023-01-22T01:00:15.998Z,51.49
2023-01-22T01:02:19.062Z,51.61
2023-01-22T01:04:21.808Z,51.60
2023-01-22T01:06:24.647Z,51.69
2023-01-22T01:08:28.501Z,51.90
2023-01-22T01:10:31.263Z,51.79
2023-01-22T01:12:33.902Z,51.64
2023-01-22T01:14:36.549Z,51.77
2023-01-22T01:16:43.050Z,51.66
2023-01-22T01:18:45.830Z,51.59
2023-01-22T01:20:54.871Z,51.55
2023-01-22T01:22:57.639Z,51.60
2023-01-22T01:25:00.431Z,51.57
2023-01-22T01:27:03.415Z,51.61
2023-01-22T01:29:07.977Z,51.54
2023-01-22T01:31:13.115Z,51.50
2023-01-22T01:33:17.358Z,51.56
2023-01-22T01:35:20.009Z,51.75
2023-01-22T01:37:22.674Z,51.60
2023-01-22T01:39:25.302Z,51.66
2023-01-22T01:41:27.958Z,51.66
2023-01-22T01:43:31.311Z,51.67
2023-01-22T01:45:35.555Z,51.56
2023-01-22T01:47:38.255Z,51.55
2023-01-22T01:49:48.416Z,51.56
2023-01-22T01:51:51.485Z,51.58
2023-01-22T01:53:54.593Z,51.57
2023-01-22T01:55:59.191Z,51.49
2023-01-22T01:58:06.193Z,51.51
2023-01-22T02:00:13.624Z,51.57
2023-01-22T02:02:19.880Z,51.60
2023-01-22T02:04:23.830Z,51.55
2023-01-22T02:06:28.265Z,51.70
2023-01-22T02:08:31.080Z,51.68
2023-01-22T02:10:33.857Z,51.57
2023-01-22T02:12:36.656Z,51.55
2023-01-22T02:14:42.484Z,51.43
2023-01-22T02:16:45.568Z,51.32
2023-01-22T02:18:48.315Z,51.28
2023-01-22T02:20:54.959Z,51.35
2023-01-22T02:22:57.664Z,51.38
2023-01-22T02:25:00.717Z,51.38
2023-01-22T02:27:03.782Z,51.35
2023-01-22T02:29:07.893Z,51.46
2023-01-22T02:31:10.822Z,51.37
2023-01-22T02:33:13.671Z,51.37
2023-01-22T02:35:16.583Z,51.47
2023-01-22T02:37:20.616Z,51.33
2023-01-22T02:39:23.399Z,51.33
2023-01-22T02:41:26.772Z,51.22
2023-01-22T02:43:29.490Z,51.21
2023-01-22T02:45:32.384Z,51.21
2023-01-22T02:47:36.145Z,51.29
2023-01-22T02:49:38.852Z,51.27
2023-01-22T02:51:41.661Z,51.33
2023-01-22T02:53:45.690Z,51.40
2023-01-22T02:55:49.037Z,51.28
2023-01-22T02:57:51.845Z,51.23
2023-01-22T02:59:54.492Z,51.36
2023-01-22T03:01:57.453Z,51.19
2023-01-22T03:04:10.572Z,51.26
2023-01-22T03:06:15.872Z,51.06
2023-01-22T03:08:19.764Z,51.21
2023-01-22T03:10:23.833Z,51.30
2023-01-22T03:12:26.586Z,51.33
2023-01-22T03:14:46.802Z,51.24
2023-01-22T03:17:07.784Z,51.14
2023-01-22T03:19:27.989Z,51.13
2023-01-22T03:21:30.744Z,51.06
2023-01-22T03:23:33.492Z,51.15
2023-01-22T03:25:37.488Z,50.87
2023-01-22T03:28:00.927Z,50.90
2023-01-22T03:30:04.764Z,50.77
2023-01-22T03:32:07.782Z,50.88
2023-01-22T03:34:10.595Z,50.87
2023-01-22T03:36:15.414Z,50.89
2023-01-22T03:38:18.056Z,50.87
2023-01-22T03:40:21.717Z,50.90
2023-01-22T03:42:26.819Z,50.66
2023-01-22T03:44:29.422Z,50.77
2023-01-22T03:46:32.388Z,50.74
2023-01-22T03:48:35.270Z,50.81
2023-01-22T03:50:37.938Z,50.62
2023-01-22T03:52:40.613Z,50.67
2023-01-22T03:54:43.507Z,50.75
2023-01-22T03:56:46.199Z,50.72
2023-01-22T03:58:51.402Z,50.68
2023-01-22T04:00:57.652Z,50.71
2023-01-22T04:03:00.367Z,50.66
2023-01-22T04:05:03.027Z,50.67
2023-01-22T04:07:05.701Z,50.46
2023-01-22T04:09:08.353Z,50.50
2023-01-22T04:11:11.490Z,50.53
2023-01-22T04:13:14.365Z,50.57
2023-01-22T04:15:18.403Z,50.63
2023-01-22T04:17:21.085Z,50.41
2023-01-22T04:19:23.798Z,50.43
2023-01-22T04:21:26.466Z,50.34
2023-01-22T04:23:29.549Z,50.13
2023-01-22T04:25:32.319Z,50.28
2023-01-22T04:27:37.748Z,50.40
2023-01-22T04:29:40.380Z,50.33
2023-01-22T04:31:44.514Z,50.43
2023-01-22T04:33:47.196Z,50.49
2023-01-22T04:35:51.137Z,50.41
2023-01-22T04:37:53.978Z,50.53
2023-01-22T04:39:56.725Z,50.53
2023-01-22T04:41:59.385Z,50.46
2023-01-22T04:44:02.107Z,50.65
2023-01-22T04:46:04.826Z,50.68
2023-01-22T04:48:10.955Z,50.68
2023-01-22T04:50:17.643Z,50.58
2023-01-22T04:52:20.769Z,50.70
2023-01-22T04:54:23.420Z,50.61
2023-01-22T04:56:28.575Z,50.68
2023-01-22T04:58:31.234Z,50.76
2023-01-22T05:00:34.070Z,50.71
2023-01-22T05:02:37.008Z,50.95
2023-01-22T05:04:41.040Z,50.68
2023-01-22T05:06:43.962Z,50.68
2023-01-22T05:08:46.649Z,50.71
2023-01-22T05:10:49.297Z,50.74
2023-01-22T05:12:52.164Z,50.70
2023-01-22T05:14:54.949Z,50.53
2023-01-22T05:16:57.627Z,50.73
2023-01-22T05:19:00.307Z,50.56
2023-01-22T05:21:04.545Z,50.64
2023-01-22T05:23:07.225Z,50.69
2023-01-22T05:25:10.370Z,50.61
2023-01-22T05:27:13.107Z,50.54
2023-01-22T05:29:15.798Z,50.67
2023-01-22T05:31:18.509Z,50.83
2023-01-22T05:33:21.337Z,50.72
2023-01-22T05:35:24.259Z,50.80
2023-01-22T05:37:28.397Z,50.75
2023-01-22T05:39:31.188Z,50.65
2023-01-22T05:41:33.827Z,50.95
2023-01-22T05:43:37.869Z,50.90
2023-01-22T05:45:40.527Z,50.82
2023-01-22T05:47:43.233Z,51.11
2023-01-22T05:49:46.050Z,51.22
2023-01-22T05:51:48.765Z,51.00
2023-01-22T05:53:53.095Z,51.06
2023-01-22T05:55:55.728Z,51.09
2023-01-22T05:57:58.464Z,51.08
2023-01-22T06:00:01.175Z,51.16
2023-01-22T06:02:04.411Z,51.22
2023-01-22T06:04:07.277Z,51.27
2023-01-22T06:06:12.836Z,51.31
2023-01-22T06:08:15.498Z,51.34
2023-01-22T06:10:20.426Z,51.36
2023-01-22T06:12:23.694Z,51.37
2023-01-22T06:14:26.475Z,51.32
2023-01-22T06:16:29.140Z,51.44
2023-01-22T06:18:31.884Z,51.48
2023-01-22T06:20:34.554Z,51.49
2023-01-22T06:22:37.232Z,51.48
2023-01-22T06:24:39.967Z,51.63
2023-01-22T06:26:44.051Z,51.58
2023-01-22T06:28:46.849Z,51.67
2023-01-22T06:30:49.913Z,51.66
2023-01-22T06:32:53.405Z,51.59
2023-01-22T06:34:56.093Z,51.59
2023-01-22T06:36:58.813Z,51.46
2023-01-22T06:39:04.219Z,51.40
2023-01-22T06:41:06.953Z,51.48
2023-01-22T06:43:10.945Z,51.51
2023-01-22T06:45:13.605Z,51.35
2023-01-22T06:47:16.301Z,51.32
2023-01-22T06:49:19.123Z,51.52
2023-01-22T06:51:21.930Z,51.53
2023-01-22T06:53:24.672Z,51.53
2023-01-22T06:55:27.417Z,51.58
2023-01-22T06:57:30.032Z,51.66
2023-01-22T06:59:36.245Z,51.69
2023-01-22T07:01:39.720Z,51.83
2023-01-22T07:03:42.624Z,51.77
2023-01-22T07:05:45.535Z,51.75
2023-01-22T07:07:48.992Z,51.80
2023-01-22T07:09:51.918Z,51.95
2023-01-22T07:11:57.372Z,51.90
2023-01-22T07:14:00.341Z,51.88
2023-01-22T07:16:05.755Z,51.84
2023-01-22T07:18:09.075Z,51.80
2023-01-22T07:20:12.995Z,51.79
2023-01-22T07:22:18.320Z,51.85
2023-01-22T07:24:21.335Z,51.87
2023-01-22T07:26:24.084Z,51.93
2023-01-22T07:28:26.907Z,52.02
2023-01-22T07:30:30.161Z,51.98
2023-01-22T07:32:35.255Z,52.01
2023-01-22T07:34:38.398Z,52.05
2023-01-22T07:36:41.191Z,52.03
2023-01-22T07:38:44.093Z,51.91
2023-01-22T07:40:46.843Z,51.98
2023-01-22T07:42:49.547Z,51.97
2023-01-22T07:44:53.348Z,51.98
2023-01-22T07:46:56.107Z,51.91
2023-01-22T07:49:00.258Z,52.05
2023-01-22T07:51:05.376Z,52.06
2023-01-22T07:53:08.617Z,51.90
2023-01-22T07:55:11.369Z,52.05
2023-01-22T07:57:15.489Z,52.13
2023-01-22T07:59:21.412Z,51.96
2023-01-22T08:01:24.183Z,51.98
2023-01-22T08:03:26.889Z,51.95
2023-01-22T08:05:31.032Z,51.82
2023-01-22T08:07:33.774Z,51.88
2023-01-22T08:09:39.556Z,51.98
2023-01-22T08:11:42.203Z,51.97
2023-01-22T08:13:45.006Z,52.13
2023-01-22T08:15:47.718Z,52.26
2023-01-22T08:17:51.584Z,52.16
2023-01-22T08:19:54.326Z,52.17
2023-01-22T08:21:58.415Z,52.20
2023-01-22T08:24:01.611Z,52.26
2023-01-22T08:26:05.130Z,52.18
2023-01-22T08:28:08.767Z,52.21
2023-01-22T08:30:12.870Z,52.04
2023-01-22T08:32:15.580Z,52.07
2023-01-22T08:34:18.228Z,51.98
2023-01-22T08:36:20.860Z,51.89
2023-01-22T08:38:24.998Z,52.06
2023-01-22T08:40:28.001Z,52.15
2023-01-22T08:42:30.710Z,52.17
2023-01-22T08:44:33.433Z,52.08
2023-01-22T08:46:40.088Z,52.09
2023-01-22T08:48:44.137Z,52.21
2023-01-22T08:50:46.997Z,51.97
2023-01-22T08:52:49.720Z,52.07
2023-01-22T08:54:53.728Z,52.11
2023-01-22T08:56:56.460Z,52.07
2023-01-22T08:59:00.733Z,52.19
2023-01-22T09:01:03.460Z,52.09
2023-01-22T09:03:06.215Z,52.12
2023-01-22T09:05:09.771Z,52.04
2023-01-22T09:07:12.491Z,52.08
2023-01-22T09:09:15.367Z,52.14
2023-01-22T09:11:19.354Z,52.00
2023-01-22T09:13:22.031Z,51.92
2023-01-22T09:15:24.700Z,51.90
2023-01-22T09:17:28.039Z,52.01
2023-01-22T09:19:30.915Z,52.06
2023-01-22T09:21:36.712Z,52.11
2023-01-22T09:23:39.433Z,52.02
2023-01-22T09:25:42.123Z,51.97
2023-01-22T09:27:46.128Z,52.23
2023-01-22T09:29:48.903Z,52.14
2023-01-22T09:31:52.008Z,52.00
2023-01-22T09:33:55.596Z,52.05
2023-01-22T09:36:07.788Z,52.17
2023-01-22T09:38:15.042Z,52.19
2023-01-22T09:40:25.956Z,52.00
2023-01-22T09:42:33.288Z,52.08
2023-01-22T09:44:40.335Z,51.93
2023-01-22T09:46:47.382Z,51.91
2023-01-22T09:48:54.150Z,52.01
2023-01-22T09:50:56.943Z,51.92
2023-01-22T09:53:04.998Z,51.97
2023-01-22T09:55:13.631Z,52.03
2023-01-22T09:57:30.769Z,52.11
2023-01-22T09:59:44.992Z,52.01
2023-01-22T10:01:52.231Z,51.94
2023-01-22T10:03:59.052Z,51.92
2023-01-22T10:06:06.075Z,51.81
2023-01-22T10:08:13.535Z,51.80
2023-01-22T10:10:20.779Z,51.73
2023-01-22T10:12:23.579Z,51.68
2023-01-22T10:14:29.967Z,51.40
2023-01-22T10:16:33.987Z,51.40
2023-01-22T10:18:43.103Z,51.54
2023-01-22T10:20:46.056Z,51.66
2023-01-22T10:22:49.218Z,51.65
2023-01-22T10:24:52.856Z,51.65
2023-01-22T10:26:58.805Z,51.51
2023-01-22T10:29:07.359Z,51.42
2023-01-22T10:31:24.400Z,51.30
2023-01-22T10:33:29.275Z,51.29
2023-01-22T10:35:32.915Z,51.31
2023-01-22T10:37:45.820Z,51.26
2023-01-22T10:39:50.476Z,51.26
2023-01-22T10:42:02.136Z,51.33
2023-01-22T10:44:26.693Z,51.26
2023-01-22T10:46:29.651Z,51.09
2023-01-22T10:48:34.217Z,51.27
2023-01-22T10:50:37.137Z,51.05
2023-01-22T10:52:42.962Z,50.82
2023-01-22T10:54:52.628Z,50.94
2023-01-22T10:57:06.408Z,50.82
2023-01-22T10:59:22.846Z,50.80
2023-01-22T11:01:32.952Z,50.88
2023-01-22T11:03:39.226Z,50.77
2023-01-22T11:05:46.916Z,50.90
2023-01-22T11:07:52.915Z,50.58
2023-01-22T11:10:04.343Z,50.90
2023-01-22T11:12:16.159Z,50.57
2023-01-22T11:14:23.828Z,50.65
2023-01-22T11:16:26.537Z,50.68
2023-01-22T11:18:34.224Z,50.64
2023-01-22T11:20:46.967Z,50.58
2023-01-22T11:23:02.622Z,50.49
2023-01-22T11:25:10.084Z,50.34
2023-01-22T11:27:31.527Z,50.09
2023-01-22T11:29:57.007Z,50.07
2023-01-22T11:32:20.026Z,50.13
2023-01-22T11:34:43.553Z,50.35
2023-01-22T11:36:54.178Z,50.21
2023-01-22T11:39:04.032Z,50.17
2023-01-22T11:41:29.051Z,50.09
2023-01-22T11:43:46.409Z,49.90
2023-01-22T11:46:03.164Z,50.17
2023-01-22T11:48:22.183Z,49.72
2023-01-22T11:50:29.195Z,50.05
2023-01-22T11:52:45.354Z,49.83
2023-01-22T11:55:01.185Z,49.55
2023-01-22T11:57:12.786Z,49.65
2023-01-22T11:59:27.232Z,49.98
2023-01-22T12:01:42.634Z,49.73
2023-01-22T12:04:15.784Z,49.70
2023-01-22T12:06:31.959Z,49.85
2023-01-22T12:08:48.363Z,49.78
2023-01-22T12:11:21.621Z,49.57
2023-01-22T12:13:44.226Z,49.38
2023-01-22T12:15:53.949Z,49.58
2023-01-22T12:18:09.668Z,49.37
2023-01-22T12:20:37.133Z,49.39
2023-01-22T12:22:45.125Z,49.33
2023-01-22T12:24:56.163Z,49.40
2023-01-22T12:27:03.495Z,49.35
2023-01-22T12:29:14.120Z,49.60
2023-01-22T12:31:22.018Z,49.24
2023-01-22T12:33:27.343Z,49.10
2023-01-22T12:35:32.571Z,49.29
2023-01-22T12:37:43.156Z,49.15
2023-01-22T12:39:59.705Z,49.27
2023-01-22T12:42:15.386Z,49.18
2023-01-22T12:44:39.025Z,49.05
2023-01-22T12:46:54.890Z,48.98
2023-01-22T12:49:05.697Z,49.02
2023-01-22T12:51:25.867Z,48.96
2023-01-22T12:53:30.456Z,49.06
2023-01-22T12:55:37.815Z,49.04
2023-01-22T12:57:42.131Z,49.04
2023-01-22T12:59:47.658Z,48.88
2023-01-22T13:02:00.109Z,48.93
2023-01-22T13:04:05.815Z,48.90
2023-01-22T13:06:19.865Z,48.98
2023-01-22T13:08:39.852Z,48.87
2023-01-22T13:10:54.182Z,48.69
2023-01-22T13:12:58.513Z,48.80
2023-01-22T13:15:02.065Z,48.88
2023-01-22T13:17:17.820Z,48.59
2023-01-22T13:19:22.982Z,48.59
2023-01-22T13:21:28.551Z,48.71
2023-01-22T13:23:33.158Z,48.78
2023-01-22T13:25:36.091Z,48.57
2023-01-22T13:27:40.257Z,48.69
2023-01-22T13:29:45.682Z,48.41
2023-01-22T13:31:55.889Z,48.45
2023-01-22T13:34:00.187Z,48.68
2023-01-22T13:36:10.766Z,48.33
2023-01-22T13:38:21.542Z,48.44
2023-01-22T13:40:27.358Z,48.57
2023-01-22T13:42:30.095Z,48.43
2023-01-22T13:44:36.924Z,48.52
2023-01-22T13:46:40.099Z,48.46
2023-01-22T13:48:43.322Z,48.63
2023-01-22T13:50:48.701Z,48.57
2023-01-22T13:52:51.744Z,48.54
2023-01-22T13:55:01.114Z,48.43
2023-01-22T13:57:05.342Z,48.42
2023-01-22T13:59:18.235Z,48.54
2023-01-22T14:01:30.916Z,48.64
2023-01-22T14:03:33.619Z,48.63
2023-01-22T14:05:37.278Z,48.44
2023-01-22T14:07:40.990Z,48.52
2023-01-22T14:09:43.696Z,48.48
2023-01-22T14:11:46.368Z,48.54
2023-01-22T14:13:51.303Z,48.59
2023-01-22T14:16:01.958Z,48.51
2023-01-22T14:18:11.528Z,48.20
2023-01-22T14:20:15.094Z,48.29
2023-01-22T14:22:18.113Z,48.52
2023-01-22T14:24:20.791Z,48.26
2023-01-22T14:26:23.489Z,48.07
2023-01-22T14:28:29.549Z,48.21
2023-01-22T14:30:32.314Z,48.14
2023-01-22T14:32:35.087Z,48.06
2023-01-22T14:34:39.086Z,48.00
2023-01-22T14:36:41.769Z,48.28
2023-01-22T14:38:46.387Z,48.01
2023-01-22T14:40:49.230Z,48.07
2023-01-22T14:42:52.638Z,48.13
2023-01-22T14:44:55.560Z,48.11
2023-01-22T14:46:58.288Z,47.96
2023-01-22T14:49:01.891Z,48.02
2023-01-22T14:51:10.677Z,48.10
2023-01-22T14:53:14.026Z,47.80
2023-01-22T14:55:17.019Z,47.74
2023-01-22T14:57:19.788Z,47.94
2023-01-22T14:59:22.430Z,47.95
2023-01-22T15:01:25.284Z,47.73
2023-01-22T15:03:31.609Z,47.73
2023-01-22T15:05:35.743Z,47.75
2023-01-22T15:07:39.938Z,47.91
2023-01-22T15:09:43.632Z,47.81
2023-01-22T15:11:46.685Z,47.71
2023-01-22T15:13:52.595Z,47.73
2023-01-22T15:15:55.754Z,47.70
2023-01-22T15:18:00.220Z,47.70
2023-01-22T15:20:04.630Z,47.58
2023-01-22T15:22:07.273Z,47.66
2023-01-22T15:24:11.705Z,47.67
2023-01-22T15:26:25.513Z,47.62
2023-01-22T15:28:28.553Z,47.59
2023-01-22T15:30:31.312Z,47.55
2023-01-22T15:32:36.925Z,47.59
2023-01-22T15:34:39.572Z,47.62
2023-01-22T15:36:42.269Z,47.75
2023-01-22T15:38:44.992Z,47.58
2023-01-22T15:40:49.005Z,47.58
2023-01-22T15:42:51.685Z,47.62
2023-01-22T15:44:54.436Z,47.58
2023-01-22T15:46:58.719Z,47.73
2023-01-22T15:49:01.656Z,47.60
2023-01-22T15:51:09.169Z,47.71
2023-01-22T15:53:11.859Z,47.56
2023-01-22T15:55:14.805Z,47.50
2023-01-22T15:57:18.954Z,47.70
2023-01-22T15:59:21.796Z,47.69
2023-01-22T16:01:25.835Z,47.82
2023-01-22T16:03:28.599Z,47.83
2023-01-22T16:05:31.337Z,47.87
2023-01-22T16:07:34.283Z,47.79
2023-01-22T16:09:37.140Z,47.84
2023-01-22T16:11:39.745Z,47.91
2023-01-22T16:13:44.429Z,47.87
2023-01-22T16:15:57.578Z,47.93
2023-01-22T16:18:01.132Z,47.94
2023-01-22T16:20:05.302Z,48.01
2023-01-22T16:22:08.508Z,47.88
2023-01-22T16:24:11.181Z,48.01
2023-01-22T16:26:17.345Z,48.14
2023-01-22T16:28:20.199Z,48.19
2023-01-22T16:30:24.279Z,48.21
2023-01-22T16:32:27.163Z,48.23
2023-01-22T16:34:29.917Z,48.26
2023-01-22T16:36:33.367Z,48.29
2023-01-22T16:38:37.417Z,48.32
2023-01-22T16:40:40.133Z,48.59
2023-01-22T16:42:58.862Z,48.39
2023-01-22T16:45:01.644Z,48.49
2023-01-22T16:47:05.824Z,48.46
2023-01-22T16:49:11.137Z,48.50
2023-01-22T16:51:17.738Z,48.54
2023-01-22T16:53:20.463Z,48.58
2023-01-22T16:55:23.788Z,48.59
2023-01-22T16:57:26.707Z,48.54
2023-01-22T16:59:30.188Z,48.64
2023-01-22T17:01:32.872Z,48.58
2023-01-22T17:03:37.086Z,48.63
2023-01-22T17:05:40.220Z,48.65
2023-01-22T17:07:42.947Z,48.73
2023-01-22T17:09:45.746Z,48.71
2023-01-22T17:11:51.130Z,48.73
2023-01-22T17:13:53.907Z,48.79
2023-01-22T17:15:56.635Z,48.87
2023-01-22T17:17:59.909Z,48.97
2023-01-22T17:20:04.528Z,48.94
2023-01-22T17:22:07.305Z,48.92
2023-01-22T17:24:11.930Z,48.94
2023-01-22T17:26:16.490Z,48.92
2023-01-22T17:28:19.170Z,48.99
2023-01-22T17:30:22.056Z,49.05
2023-01-22T17:32:26.392Z,49.01
2023-01-22T17:34:29.021Z,49.16
2023-01-22T17:36:32.859Z,48.79
2023-01-22T17:38:38.522Z,49.01
2023-01-22T17:40:42.163Z,48.87
2023-01-22T17:42:44.979Z,48.96
2023-01-22T17:44:47.999Z,49.00
2023-01-22T17:46:54.711Z,48.88
2023-01-22T17:48:57.587Z,48.90
2023-01-22T17:51:03.923Z,48.96
2023-01-22T17:53:08.025Z,49.02
2023-01-22T17:55:11.488Z,48.98
2023-01-22T17:57:14.169Z,49.04
2023-01-22T17:59:16.842Z,49.00
2023-01-22T18:01:23.610Z,49.26
2023-01-22T18:03:26.344Z,49.32
2023-01-22T18:05:29.237Z,49.27
2023-01-22T18:07:32.041Z,49.26
2023-01-22T18:09:36.019Z,49.38
2023-01-22T18:11:39.669Z,49.25
2023-01-22T18:13:42.712Z,49.32
2023-01-22T18:15:46.637Z,49.33
2023-01-22T18:17:49.801Z,49.20
2023-01-22T18:19:52.511Z,49.23
2023-01-22T18:21:55.233Z,49.21
2023-01-22T18:23:59.911Z,49.38
2023-01-22T18:26:06.980Z,49.37
2023-01-22T18:28:10.118Z,49.25
2023-01-22T18:30:15.312Z,49.22
2023-01-22T18:32:18.254Z,49.26
2023-01-22T18:34:20.928Z,49.32
2023-01-22T18:36:25.483Z,49.28
2023-01-22T18:38:28.671Z,49.29
2023-01-22T18:40:31.724Z,49.31
2023-01-22T18:42:35.811Z,49.20
2023-01-22T18:44:39.818Z,49.30
2023-01-22T18:46:47.146Z,49.38
2023-01-22T18:48:54.542Z,49.33
2023-01-22T18:50:57.310Z,49.29
2023-01-22T18:53:02.048Z,49.19
2023-01-22T18:55:05.125Z,49.25
2023-01-22T18:57:07.858Z,49.21
2023-01-22T18:59:12.900Z,49.16
2023-01-22T19:01:18.207Z,49.26
2023-01-22T19:03:22.892Z,49.05
2023-01-22T19:05:26.874Z,49.11
2023-01-22T19:07:29.634Z,49.09
2023-01-22T19:09:32.446Z,49.08
2023-01-22T19:11:38.859Z,49.21
2023-01-22T19:13:42.237Z,49.05
2023-01-22T19:15:46.425Z,49.13
2023-01-22T19:17:49.155Z,49.08
2023-01-22T19:19:51.943Z,49.05
2023-01-22T19:21:57.892Z,48.98
2023-01-22T19:24:02.457Z,49.01
2023-01-22T19:26:07.715Z,49.19
2023-01-22T19:28:10.451Z,49.08
2023-01-22T19:30:13.656Z,49.09
2023-01-22T19:32:22.275Z,49.07
2023-01-22T19:34:25.502Z,48.97
2023-01-22T19:36:29.953Z,49.08
2023-01-22T19:38:32.787Z,48.91
2023-01-22T19:40:35.413Z,49.04
2023-01-22T19:42:40.063Z,49.09
2023-01-22T19:44:43.138Z,48.99
2023-01-22T19:46:45.803Z,49.01
2023-01-22T19:48:50.138Z,48.98
2023-01-22T19:50:58.971Z,48.94
2023-01-22T19:53:01.733Z,49.13
2023-01-22T19:55:04.582Z,48.87
2023-01-22T19:57:07.480Z,48.90
2023-01-22T19:59:14.536Z,48.97
2023-01-22T20:01:17.997Z,48.87
2023-01-22T20:03:21.553Z,48.97
2023-01-22T20:05:25.750Z,48.89
2023-01-22T20:07:28.418Z,48.91
2023-01-22T20:09:32.003Z,48.88
2023-01-22T20:11:34.993Z,48.91
2023-01-22T20:13:39.424Z,48.75
2023-01-22T20:15:43.072Z,48.90
2023-01-22T20:17:45.869Z,48.90
2023-01-22T20:19:48.667Z,48.98
2023-01-22T20:21:52.734Z,48.84
2023-01-22T20:23:55.782Z,48.82
2023-01-22T20:26:00.441Z,48.98
2023-01-22T20:28:03.397Z,48.82
2023-01-22T20:30:07.768Z,48.87
2023-01-22T20:32:10.388Z,48.92
2023-01-22T20:34:13.232Z,49.21
2023-01-22T20:36:16.320Z,48.96
2023-01-22T20:38:20.367Z,48.99
2023-01-22T20:40:23.093Z,49.03
2023-01-22T20:42:25.777Z,48.85
2023-01-22T20:44:28.708Z,48.87
2023-01-22T20:46:31.659Z,48.91
2023-01-22T20:48:34.923Z,48.71
2023-01-22T20:50:41.784Z,48.79
2023-01-22T20:52:44.490Z,48.87
2023-01-22T20:55:01.007Z,48.90
2023-01-22T20:57:04.874Z,48.94
2023-01-22T20:59:10.809Z,48.82
2023-01-22T21:01:15.758Z,48.96
2023-01-22T21:03:18.712Z,48.89
2023-01-22T21:05:21.671Z,48.90
2023-01-22T21:07:26.681Z,48.84
2023-01-22T21:09:30.953Z,48.91
2023-01-22T21:11:36.633Z,48.94
2023-01-22T21:13:39.697Z,48.96
2023-01-22T21:15:42.508Z,48.98
2023-01-22T21:17:45.159Z,49.03
2023-01-22T21:19:48.353Z,48.90
2023-01-22T21:21:52.400Z,49.00
2023-01-22T21:23:56.962Z,49.12
2023-01-22T21:26:04.970Z,48.99
2023-01-22T21:28:09.287Z,49.00
2023-01-22T21:30:13.296Z,49.00
2023-01-22T21:32:16.903Z,48.93
2023-01-22T21:34:22.394Z,49.02
2023-01-22T21:36:26.012Z,48.85
